createdAt,value
2018-03-21T00:01:27.134Z,0.98
2018-03-21T00:03:55.757Z,0.98
2018-03-21T00:06:24.403Z,0.98
2018-03-21T00:08:52.958Z,0.98
2018-03-21T00:11:21.515Z,0.96
2018-03-21T00:13:50.029Z,0.91
2018-03-21T00:16:18.848Z,0.89
2018-03-21T00:18:47.487Z,0.90
2018-03-21T00:21:15.975Z,0.90
2018-03-21T00:23:44.567Z,0.86
2018-03-21T00:26:13.074Z,0.80
2018-03-21T00:28:41.630Z,0.79
2018-03-21T00:31:10.245Z,0.78
2018-03-21T00:33:39.030Z,0.75
2018-03-21T00:36:07.549Z,0.71
2018-03-21T00:38:36.056Z,0.71
2018-03-21T00:41:04.512Z,0.72
2018-03-21T00:43:33.198Z,0.69
2018-03-21T00:46:01.911Z,0.69
2018-03-21T00:48:30.395Z,0.65
2018-03-21T00:50:58.882Z,0.71
2018-03-21T00:53:27.528Z,0.63
2018-03-21T00:55:56.114Z,0.62
2018-03-21T00:58:24.780Z,0.53
2018-03-21T01:00:53.362Z,0.55
2018-03-21T01:03:21.831Z,0.34
2018-03-21T01:05:50.350Z,0.36
2018-03-21T01:08:18.937Z,0.35
2018-03-21T01:10:47.550Z,0.41
2018-03-21T01:13:16.281Z,0.42
2018-03-21T01:15:45.125Z,0.41
2018-03-21T01:18:14.470Z,0.40
2018-03-21T01:20:43.078Z,0.34
2018-03-21T01:23:11.617Z,0.37
2018-03-21T01:25:40.067Z,0.37
2018-03-21T01:28:09.603Z,0.35
2018-03-21T01:30:38.113Z,0.30
2018-03-21T01:33:06.640Z,0.37
2018-03-21T01:35:35.223Z,0.44
2018-03-21T01:38:03.947Z,0.45
2018-03-21T01:40:32.451Z,0.48
2018-03-21T01:43:01.997Z,0.49
2018-03-21T01:45:30.532Z,0.41
2018-03-21T01:47:59.014Z,0.41
2018-03-21T01:50:38.395Z,0.40
2018-03-21T01:53:10.900Z,0.36
2018-03-21T01:55:39.486Z,0.29
2018-03-21T01:58:07.968Z,0.38
2018-03-21T02:00:36.417Z,0.36
2018-03-21T02:03:04.994Z,0.33
2018-03-21T02:05:33.530Z,0.35
2018-03-21T02:08:01.946Z,0.29
2018-03-21T02:10:30.438Z,0.28
2018-03-21T02:12:59.055Z,0.33
2018-03-21T02:15:27.875Z,0.25
2018-03-21T02:17:56.414Z,0.26
2018-03-21T02:20:24.941Z,0.26
2018-03-21T02:22:53.383Z,0.23
2018-03-21T02:25:21.982Z,0.12
2018-03-21T02:27:50.488Z,0.04
2018-03-21T02:30:19.172Z,0.11
2018-03-21T02:32:47.793Z,0.08
2018-03-21T02:35:16.296Z,-0.06
2018-03-21T02:37:44.828Z,0.02
2018-03-21T02:40:13.387Z,0.04
2018-03-21T02:42:41.830Z,0.02
2018-03-21T02:45:10.288Z,-0.10
2018-03-21T02:47:38.787Z,-0.17
2018-03-21T02:50:07.368Z,-0.30
2018-03-21T02:52:36.091Z,-0.24
2018-03-21T02:55:04.676Z,-0.26
2018-03-21T02:57:33.251Z,-0.25
2018-03-21T03:00:01.689Z,-0.33
2018-03-21T03:02:30.301Z,-0.36
2018-03-21T03:04:58.777Z,-0.38
2018-03-21T03:07:27.242Z,-0.41
2018-03-21T03:09:55.848Z,-0.43
2018-03-21T03:12:24.555Z,-0.50
2018-03-21T03:14:53.106Z,-0.43
2018-03-21T03:17:21.895Z,-0.35
2018-03-21T03:19:50.581Z,-0.35
2018-03-21T03:22:20.131Z,-0.34
2018-03-21T03:24:48.875Z,-0.39
2018-03-21T03:27:17.400Z,-0.50
2018-03-21T03:29:45.949Z,-0.46
2018-03-21T03:32:14.471Z,-0.44
2018-03-21T03:34:43.013Z,-0.37
2018-03-21T03:37:11.432Z,-0.38
2018-03-21T03:39:39.946Z,-0.36
2018-03-21T03:42:08.464Z,-0.36
2018-03-21T03:44:36.947Z,-0.36
2018-03-21T03:47:05.625Z,-0.32
2018-03-21T03:49:34.049Z,-0.31
2018-03-21T03:52:02.569Z,-0.30
2018-03-21T03:54:31.201Z,-0.30
2018-03-21T03:56:59.776Z,-0.37
2018-03-21T03:59:28.247Z,-0.37
2018-03-21T04:01:57.746Z,-0.36
2018-03-21T04:04:26.202Z,-0.28
2018-03-21T04:06:54.683Z,-0.30
2018-03-21T04:09:23.300Z,-0.36
2018-03-21T04:11:51.844Z,-0.46
2018-03-21T04:14:24.474Z,-0.51
2018-03-21T04:16:53.047Z,-0.56
2018-03-21T04:19:21.735Z,-0.61
2018-03-21T04:21:50.533Z,-0.63
2018-03-21T04:24:19.410Z,-0.65
2018-03-21T04:26:48.011Z,-0.54
2018-03-21T04:29:16.618Z,-0.52
2018-03-21T04:31:45.194Z,-0.47
2018-03-21T04:34:13.885Z,-0.45
2018-03-21T04:36:42.572Z,-0.46
2018-03-21T04:39:11.130Z,-0.44
2018-03-21T04:41:39.855Z,-0.40
2018-03-21T04:44:08.395Z,-0.37
2018-03-21T04:46:36.979Z,-0.31
2018-03-21T04:49:05.538Z,-0.33
2018-03-21T04:51:34.059Z,-0.37
2018-03-21T04:54:02.609Z,-0.33
2018-03-21T04:56:31.080Z,-0.33
2018-03-21T04:58:59.670Z,-0.35
2018-03-21T05:01:28.192Z,-0.32
2018-03-21T05:03:56.876Z,-0.35
2018-03-21T05:06:25.441Z,-0.34
2018-03-21T05:08:53.939Z,-0.34
2018-03-21T05:11:22.423Z,-0.29
2018-03-21T05:13:51.162Z,-0.36
2018-03-21T05:16:20.055Z,-0.36
2018-03-21T05:18:48.757Z,-0.40
2018-03-21T05:21:17.763Z,-0.39
2018-03-21T05:23:46.321Z,-0.40
2018-03-21T05:26:15.075Z,-0.42
2018-03-21T05:28:44.171Z,-0.45
2018-03-21T05:31:12.932Z,-0.49
2018-03-21T05:33:41.594Z,-0.50
2018-03-21T05:36:10.156Z,-0.55
2018-03-21T05:38:38.945Z,-0.55
2018-03-21T05:41:07.527Z,-0.52
2018-03-21T05:43:36.100Z,-0.58
2018-03-21T05:46:05.341Z,-0.53
2018-03-21T05:48:34.717Z,-0.49
2018-03-21T05:51:03.498Z,-0.48
2018-03-21T05:53:32.109Z,-0.52
2018-03-21T05:56:00.575Z,-0.49
2018-03-21T05:58:29.152Z,-0.46
2018-03-21T06:00:57.758Z,-0.41
2018-03-21T06:03:26.318Z,-0.38
2018-03-21T06:05:54.906Z,-0.32
2018-03-21T06:08:23.490Z,-0.17
2018-03-21T06:10:51.972Z,-0.07
2018-03-21T06:13:20.658Z,0.02
2018-03-21T06:15:49.253Z,0.19
2018-03-21T06:18:17.826Z,0.32
2018-03-21T06:20:46.554Z,0.39
2018-03-21T06:23:15.151Z,0.48
2018-03-21T06:25:43.759Z,0.59
2018-03-21T06:28:14.412Z,0.60
2018-03-21T06:30:43.044Z,0.56
2018-03-21T06:33:11.477Z,0.58
2018-03-21T06:35:40.097Z,0.63
2018-03-21T06:38:09.023Z,0.70
2018-03-21T06:40:45.113Z,0.81
2018-03-21T06:43:13.740Z,0.85
2018-03-21T06:45:42.501Z,0.92
2018-03-21T06:48:11.067Z,0.96
2018-03-21T06:50:40.411Z,1.07
2018-03-21T06:53:08.968Z,1.11
2018-03-21T06:55:37.642Z,1.19
2018-03-21T06:58:06.134Z,1.22
2018-03-21T07:00:34.704Z,1.35
2018-03-21T07:03:03.419Z,1.46
2018-03-21T07:05:31.889Z,1.66
2018-03-21T07:08:00.365Z,1.88
2018-03-21T07:10:28.989Z,2.10
2018-03-21T07:12:57.535Z,2.14
2018-03-21T07:15:37.793Z,2.14
2018-03-21T07:18:14.203Z,2.06
2018-03-21T07:20:42.855Z,2.09
2018-03-21T07:23:11.422Z,2.14
2018-03-21T07:25:39.996Z,2.27
2018-03-21T07:28:08.784Z,2.36
2018-03-21T07:30:37.236Z,2.47
2018-03-21T07:33:05.706Z,2.57
2018-03-21T07:35:34.401Z,2.77
2018-03-21T07:38:02.922Z,2.93
2018-03-21T07:40:31.568Z,3.11
2018-03-21T07:43:00.113Z,3.30
2018-03-21T07:45:28.973Z,3.54
2018-03-21T07:47:57.502Z,3.71
2018-03-21T07:50:26.014Z,3.74
2018-03-21T07:52:54.548Z,3.81
2018-03-21T07:55:23.102Z,3.71
2018-03-21T07:57:51.687Z,3.77
2018-03-21T08:00:20.317Z,3.86
2018-03-21T08:02:48.980Z,3.86
2018-03-21T08:05:17.876Z,3.95
2018-03-21T08:07:46.634Z,3.95
2018-03-21T08:10:15.333Z,4.07
2018-03-21T08:12:44.512Z,4.16
2018-03-21T08:15:13.099Z,4.15
2018-03-21T08:17:41.650Z,4.24
2018-03-21T08:20:10.273Z,4.41
2018-03-21T08:22:38.768Z,4.36
2018-03-21T08:25:07.293Z,4.51
2018-03-21T08:27:35.914Z,4.46
2018-03-21T08:30:04.476Z,4.56
2018-03-21T08:32:33.021Z,4.73
2018-03-21T08:35:01.563Z,4.90
2018-03-21T08:37:30.142Z,5.08
2018-03-21T08:39:58.832Z,5.16
2018-03-21T08:42:27.414Z,4.98
2018-03-21T08:44:56.033Z,4.95
2018-03-21T08:47:24.796Z,5.00
2018-03-21T08:49:53.577Z,5.06
2018-03-21T08:52:22.310Z,4.98
2018-03-21T08:54:50.980Z,4.93
2018-03-21T08:57:20.051Z,4.96
2018-03-21T08:59:48.746Z,4.93
2018-03-21T09:02:17.288Z,4.95
2018-03-21T09:04:46.008Z,5.02
2018-03-21T09:07:14.612Z,4.94
2018-03-21T09:09:44.045Z,4.92
2018-03-21T09:12:13.800Z,4.83
2018-03-21T09:14:42.313Z,4.76
2018-03-21T09:17:10.871Z,4.76
2018-03-21T09:19:39.392Z,4.80
2018-03-21T09:22:08.062Z,4.92
2018-03-21T09:24:37.458Z,5.10
2018-03-21T09:27:06.864Z,5.27
2018-03-21T09:29:35.427Z,5.45
2018-03-21T09:32:04.645Z,5.51
2018-03-21T09:34:33.248Z,5.52
2018-03-21T09:37:01.898Z,5.41
2018-03-21T09:39:31.499Z,5.43
2018-03-21T09:42:00.520Z,5.63
2018-03-21T09:44:29.140Z,5.58
2018-03-21T09:46:57.755Z,5.59
2018-03-21T09:49:26.820Z,5.53
2018-03-21T09:51:55.648Z,5.39
2018-03-21T09:54:25.026Z,5.51
2018-03-21T09:56:57.756Z,5.69
2018-03-21T09:59:26.272Z,5.76
2018-03-21T10:01:54.877Z,5.88
2018-03-21T10:04:23.750Z,6.10
2018-03-21T10:06:52.333Z,5.91
2018-03-21T10:09:20.837Z,5.91
2018-03-21T10:11:49.418Z,5.70
2018-03-21T10:14:18.137Z,5.59
2018-03-21T10:16:46.661Z,5.55
2018-03-21T10:19:15.552Z,5.50
2018-03-21T10:21:44.293Z,5.31
2018-03-21T10:24:13.130Z,5.36
2018-03-21T10:26:41.919Z,5.35
2018-03-21T10:29:10.388Z,5.40
2018-03-21T10:31:39.004Z,5.38
2018-03-21T10:34:07.506Z,5.42
2018-03-21T10:36:35.993Z,5.52
2018-03-21T10:39:04.518Z,5.46
2018-03-21T10:41:33.031Z,5.54
2018-03-21T10:44:01.593Z,5.46
2018-03-21T10:46:30.175Z,5.63
2018-03-21T10:48:58.656Z,5.76
2018-03-21T10:51:27.084Z,5.79
2018-03-21T10:53:55.802Z,5.91
2018-03-21T10:56:25.534Z,6.01
2018-03-21T10:58:54.120Z,6.11
2018-03-21T11:01:28.165Z,6.13
2018-03-21T11:03:56.658Z,6.07
2018-03-21T11:06:25.319Z,6.24
2018-03-21T11:08:54.110Z,6.36
2018-03-21T11:11:22.857Z,6.47
2018-03-21T11:13:51.562Z,6.42
2018-03-21T11:16:20.273Z,6.41
2018-03-21T11:18:49.055Z,6.42
2018-03-21T11:21:17.742Z,6.63
2018-03-21T11:23:46.431Z,6.62
2018-03-21T11:26:15.289Z,6.71
2018-03-21T11:28:44.033Z,6.70
2018-03-21T11:31:12.648Z,6.78
2018-03-21T11:33:41.214Z,6.95
2018-03-21T11:36:09.887Z,7.01
2018-03-21T11:38:38.521Z,7.28
2018-03-21T11:41:07.052Z,7.22
2018-03-21T11:43:35.628Z,7.29
2018-03-21T11:46:04.109Z,7.26
2018-03-21T11:48:32.889Z,7.21
2018-03-21T11:51:01.369Z,7.32
2018-03-21T11:53:30.291Z,7.23
2018-03-21T11:55:59.170Z,7.19
2018-03-21T11:58:27.887Z,7.06
2018-03-21T12:00:56.934Z,6.90
2018-03-21T12:03:25.712Z,6.94
2018-03-21T12:05:54.374Z,7.05
2018-03-21T12:08:23.012Z,7.11
2018-03-21T12:10:51.672Z,7.11
2018-03-21T12:13:21.209Z,6.87
2018-03-21T12:15:50.038Z,6.85
2018-03-21T12:18:18.956Z,6.88
2018-03-21T12:20:47.704Z,6.85
2018-03-21T12:23:16.713Z,6.83
2018-03-21T12:25:45.660Z,6.84
2018-03-21T12:28:14.343Z,6.95
2018-03-21T12:30:43.571Z,7.01
2018-03-21T12:33:12.208Z,7.08
2018-03-21T12:35:40.864Z,7.16
2018-03-21T12:38:09.696Z,7.21
2018-03-21T12:40:38.208Z,7.22
2018-03-21T12:43:06.726Z,7.39
2018-03-21T12:45:35.265Z,7.36
2018-03-21T12:48:03.907Z,7.26
2018-03-21T12:50:32.489Z,7.55
2018-03-21T12:53:01.121Z,7.71
2018-03-21T12:55:29.655Z,8.34
2018-03-21T12:57:58.412Z,8.62
2018-03-21T13:00:26.958Z,8.78
2018-03-21T13:02:55.562Z,9.16
2018-03-21T13:05:24.313Z,9.14
2018-03-21T13:07:53.045Z,8.69
2018-03-21T13:10:21.538Z,8.45
2018-03-21T13:12:50.202Z,8.64
2018-03-21T13:15:19.446Z,8.68
2018-03-21T13:17:48.105Z,8.42
2018-03-21T13:20:16.855Z,8.05
2018-03-21T13:22:46.455Z,7.98
2018-03-21T13:25:15.803Z,7.78
2018-03-21T13:27:45.308Z,7.68
2018-03-21T13:30:14.098Z,7.69
2018-03-21T13:32:42.619Z,7.84
2018-03-21T13:35:11.136Z,8.21
2018-03-21T13:37:40.013Z,8.06
2018-03-21T13:40:08.800Z,8.03
2018-03-21T13:42:37.308Z,7.90
2018-03-21T13:45:05.890Z,7.81
2018-03-21T13:47:34.422Z,7.77
2018-03-21T13:50:03.031Z,7.84
2018-03-21T13:52:31.638Z,7.75
2018-03-21T13:55:00.308Z,7.64
2018-03-21T13:57:32.224Z,7.72
2018-03-21T14:00:02.241Z,7.81
2018-03-21T14:02:30.841Z,7.95
2018-03-21T14:04:59.637Z,8.07
2018-03-21T14:07:28.210Z,7.95
2018-03-21T14:09:56.802Z,7.85
2018-03-21T14:12:25.482Z,7.71
2018-03-21T14:14:54.168Z,7.61
2018-03-21T14:17:22.998Z,7.55
2018-03-21T14:19:52.399Z,7.51
2018-03-21T14:22:21.115Z,7.58
2018-03-21T14:24:49.772Z,7.62
2018-03-21T14:27:18.867Z,7.70
2018-03-21T14:29:47.556Z,7.67
2018-03-21T14:32:16.090Z,7.60
2018-03-21T14:34:44.942Z,7.55
2018-03-21T14:37:14.269Z,7.48
2018-03-21T14:39:42.829Z,7.43
2018-03-21T14:42:11.495Z,7.38
2018-03-21T14:44:40.138Z,7.33
2018-03-21T14:47:08.664Z,7.23
2018-03-21T14:49:37.487Z,7.17
2018-03-21T14:52:06.406Z,7.20
2018-03-21T14:54:34.921Z,7.31
2018-03-21T14:57:03.421Z,7.32
2018-03-21T14:59:32.242Z,7.46
2018-03-21T15:02:00.678Z,7.66
2018-03-21T15:04:29.255Z,7.81
2018-03-21T15:06:57.850Z,7.91
2018-03-21T15:09:26.480Z,8.02
2018-03-21T15:11:55.208Z,7.92
2018-03-21T15:14:24.032Z,7.69
2018-03-21T15:16:52.717Z,7.65
2018-03-21T15:19:21.527Z,7.70
2018-03-21T15:21:50.174Z,7.71
2018-03-21T15:24:18.945Z,7.65
2018-03-21T15:26:47.686Z,7.58
2018-03-21T15:29:16.292Z,7.39
2018-03-21T15:31:44.908Z,7.27
2018-03-21T15:34:13.452Z,7.25
2018-03-21T15:36:42.227Z,7.15
2018-03-21T15:39:11.338Z,7.06
2018-03-21T15:41:41.841Z,7.01
2018-03-21T15:44:15.055Z,7.03
2018-03-21T15:49:36.639Z,6.85
2018-03-21T15:52:05.206Z,6.69
2018-03-21T15:54:33.674Z,6.61
2018-03-21T15:57:02.225Z,6.56
2018-03-21T15:59:30.783Z,6.46
2018-03-21T16:01:59.359Z,6.51
2018-03-21T16:04:28.607Z,6.49
2018-03-21T16:06:57.590Z,6.48
2018-03-21T16:09:26.594Z,6.46
2018-03-21T16:11:55.846Z,6.42
2018-03-21T16:14:24.538Z,6.35
2018-03-21T16:16:53.493Z,6.29
2018-03-21T16:19:23.191Z,6.33
2018-03-21T16:21:51.812Z,6.20
2018-03-21T16:24:20.871Z,6.17
2018-03-21T16:26:49.685Z,6.11
2018-03-21T16:29:18.784Z,6.07
2018-03-21T16:31:47.871Z,6.07
2018-03-21T16:34:16.883Z,6.11
2018-03-21T16:36:45.718Z,6.07
2018-03-21T16:39:14.620Z,6.08
2018-03-21T16:41:43.298Z,6.06
2018-03-21T16:44:11.818Z,6.11
2018-03-21T16:46:40.565Z,6.11
2018-03-21T16:49:09.139Z,6.08
2018-03-21T16:51:37.635Z,6.05
2018-03-21T16:54:06.156Z,5.99
2018-03-21T16:56:34.759Z,5.97
2018-03-21T16:59:03.348Z,6.00
2018-03-21T17:01:31.933Z,6.04
2018-03-21T17:04:00.688Z,6.05
2018-03-21T17:06:29.334Z,6.01
2018-03-21T17:08:57.944Z,5.93
2018-03-21T17:11:27.064Z,5.88
2018-03-21T17:13:55.769Z,5.88
2018-03-21T17:16:25.515Z,5.88
2018-03-21T17:18:54.230Z,5.82
2018-03-21T17:21:23.235Z,5.82
2018-03-21T17:23:51.813Z,5.82
2018-03-21T17:26:20.456Z,5.78
2018-03-21T17:28:49.095Z,5.69
2018-03-21T17:31:17.658Z,5.68
2018-03-21T17:33:48.688Z,5.60
2018-03-21T17:36:17.190Z,5.50
2018-03-21T17:38:45.979Z,5.47
2018-03-21T17:41:14.824Z,5.42
2018-03-21T17:43:43.620Z,5.36
2018-03-21T17:46:12.458Z,5.35
2018-03-21T17:48:41.030Z,5.37
2018-03-21T17:51:24.739Z,5.39
2018-03-21T17:54:00.692Z,5.40
2018-03-21T17:56:31.969Z,5.35
2018-03-21T17:59:00.607Z,5.26
2018-03-21T18:01:29.391Z,5.21
2018-03-21T18:03:58.205Z,5.15
2018-03-21T18:06:26.996Z,5.06
2018-03-21T18:08:55.621Z,5.06
2018-03-21T18:11:24.102Z,5.10
2018-03-21T18:13:52.700Z,5.04
2018-03-21T18:16:21.377Z,5.03
2018-03-21T18:18:49.978Z,5.03
2018-03-21T18:21:18.616Z,5.03
2018-03-21T18:23:47.478Z,5.07
2018-03-21T18:26:16.229Z,5.07
2018-03-21T18:28:44.849Z,5.02
2018-03-21T18:31:13.871Z,5.05
2018-03-21T18:33:42.351Z,5.10
2018-03-21T18:36:10.962Z,5.13
2018-03-21T18:38:41.852Z,5.15
2018-03-21T18:41:10.358Z,5.16
2018-03-21T18:43:38.972Z,5.11
2018-03-21T18:46:07.474Z,5.12
2018-03-21T18:48:36.167Z,5.11
2018-03-21T18:51:04.740Z,5.11
2018-03-21T18:53:33.265Z,5.03
2018-03-21T18:56:01.873Z,4.93
2018-03-21T18:58:30.703Z,4.85
2018-03-21T19:00:59.387Z,4.79
2018-03-21T19:03:28.283Z,4.79
2018-03-21T19:05:57.201Z,4.75
2018-03-21T19:08:25.962Z,4.78
2018-03-21T19:10:54.918Z,4.80
2018-03-21T19:13:23.743Z,4.76
2018-03-21T19:15:52.643Z,4.73
2018-03-21T19:18:21.463Z,4.66
2018-03-21T19:20:50.487Z,4.64
2018-03-21T19:23:19.662Z,4.64
2018-03-21T19:25:48.724Z,4.65
2018-03-21T19:28:17.308Z,4.71
2018-03-21T19:30:45.882Z,4.68
2018-03-21T19:33:14.634Z,4.67
2018-03-21T19:35:43.567Z,4.63
2018-03-21T19:38:12.082Z,4.62
2018-03-21T19:40:40.644Z,4.61
2018-03-21T19:43:09.108Z,4.52
2018-03-21T19:45:37.600Z,4.49
2018-03-21T19:48:06.267Z,4.48
2018-03-21T19:50:34.786Z,4.47
2018-03-21T19:53:03.282Z,4.44
2018-03-21T19:55:31.891Z,4.42
2018-03-21T19:58:00.637Z,4.38
2018-03-21T20:00:29.429Z,4.35
2018-03-21T20:02:58.007Z,4.43
2018-03-21T20:05:26.975Z,4.44
2018-03-21T20:07:56.158Z,4.43
2018-03-21T20:10:25.099Z,4.44
2018-03-21T20:12:54.089Z,4.48
2018-03-21T20:15:22.984Z,4.51
2018-03-21T20:17:51.929Z,4.47
2018-03-21T20:20:20.772Z,4.46
2018-03-21T20:22:49.527Z,4.44
2018-03-21T20:25:18.548Z,4.43
2018-03-21T20:27:47.722Z,4.40
2018-03-21T20:30:16.703Z,4.42
2018-03-21T20:32:45.739Z,4.42
2018-03-21T20:35:14.640Z,4.42
2018-03-21T20:37:43.269Z,4.47
2018-03-21T20:40:11.737Z,4.40
2018-03-21T20:42:40.899Z,4.45
2018-03-21T20:45:09.477Z,4.41
2018-03-21T20:47:38.658Z,4.46
2018-03-21T20:50:07.102Z,4.52
2018-03-21T20:52:35.617Z,4.50
2018-03-21T20:55:04.774Z,4.44
2018-03-21T20:57:33.576Z,4.35
2018-03-21T21:00:02.333Z,4.36
2018-03-21T21:02:30.937Z,4.40
2018-03-21T21:05:00.088Z,4.43
2018-03-21T21:07:28.710Z,4.46
2018-03-21T21:09:57.431Z,4.39
2018-03-21T21:12:26.513Z,4.40
2018-03-21T21:14:55.277Z,4.35
2018-03-21T21:17:24.191Z,4.42
2018-03-21T21:19:53.009Z,4.38
2018-03-21T21:22:21.810Z,4.40
2018-03-21T21:24:50.339Z,4.34
2018-03-21T21:27:19.167Z,4.34
2018-03-21T21:29:51.743Z,4.30
2018-03-21T21:32:20.326Z,4.23
2018-03-21T21:34:49.540Z,4.17
2018-03-21T21:37:18.626Z,4.16
2018-03-21T21:39:47.284Z,4.13
2018-03-21T21:42:16.099Z,4.13
2018-03-21T21:44:45.199Z,4.20
2018-03-21T21:47:13.982Z,4.18
2018-03-21T21:49:42.578Z,4.26
2018-03-21T21:52:11.244Z,4.26
2018-03-21T21:54:39.829Z,4.31
2018-03-21T21:57:08.351Z,4.29
2018-03-21T21:59:37.014Z,4.16
2018-03-21T22:02:05.477Z,4.15
2018-03-21T22:04:34.034Z,4.17
2018-03-21T22:07:03.743Z,4.19
2018-03-21T22:09:32.233Z,4.23
2018-03-21T22:12:01.023Z,4.24
2018-03-21T22:14:29.770Z,4.30
2018-03-21T22:16:58.405Z,4.30
2018-03-21T22:19:27.123Z,4.31
2018-03-21T22:21:55.852Z,4.34
2018-03-21T22:24:24.614Z,4.32
2018-03-21T22:26:53.534Z,4.30
2018-03-21T22:29:22.422Z,4.25
2018-03-21T22:31:51.454Z,4.21
2018-03-21T22:34:20.035Z,4.19
2018-03-21T22:36:49.645Z,4.18
2018-03-21T22:39:18.538Z,4.20
2018-03-21T22:41:47.198Z,4.19
2018-03-21T22:44:15.972Z,4.15
2018-03-21T22:46:45.168Z,4.16
2018-03-21T22:49:13.757Z,4.17
2018-03-21T22:51:42.639Z,4.17
2018-03-21T22:54:11.267Z,4.15
2018-03-21T22:56:39.915Z,4.15
2018-03-21T23:01:48.953Z,4.09
2018-03-21T23:04:18.071Z,4.07
2018-03-21T23:06:46.668Z,4.08
2018-03-21T23:09:15.699Z,4.08
2018-03-21T23:11:45.699Z,4.05
2018-03-21T23:14:14.351Z,4.09
2018-03-21T23:16:43.468Z,4.09
2018-03-21T23:19:11.985Z,4.08
2018-03-21T23:21:40.706Z,4.08
2018-03-21T23:24:09.285Z,4.09
2018-03-21T23:26:37.820Z,4.02
2018-03-21T23:29:06.353Z,4.03
2018-03-21T23:31:34.993Z,4.02
2018-03-21T23:34:04.133Z,4.01
2018-03-21T23:36:32.726Z,4.00
2018-03-21T23:39:01.618Z,4.02
2018-03-21T23:41:30.217Z,4.03
2018-03-21T23:43:58.896Z,4.01
2018-03-21T23:46:27.490Z,3.98
2018-03-21T23:48:56.254Z,3.95
2018-03-21T23:51:25.075Z,3.88
2018-03-21T23:53:53.824Z,3.88
2018-03-21T23:56:22.509Z,3.93
2018-03-21T23:58:51.091Z,3.95
